Petaluma — WCX2520 — position and weather

sailwx.info

Track history (hours):
 
Tides and Currents Weather Stations Pressure Air Temp Water Temp Dewpoint Dewpoint Depression Visibility Wind Speed Wind Dir Waves Ship Positions

Petaluma

Owner: JERICO PRODUCTS INC, PETALUMA, CA. More information available from US FCC via Universal Licensing System and Coast Guard Vessel Documentation Center.

Last reported at 2017-Nov-20 00:23 UTC. Time now 2017-Nov-23 05:12 UTC.
Position N 38°03' W 122°24'.

Length 20 m; draft 3.9 m.

Type: Towing. MMSI: 367006030.

Date/timePositionNaut miles runAvg speedWind from/ knotsBaromVisibWave heightAir tempDewpointWater temp
2017-Nov-20 00:23N 38°03' W 122°24'3 6.2
2017-Nov-19 23:57N 38°05' W 122°26'3 7.4
2017-Nov-19 23:30N 38°07' W 122°30'4 7.4
2017-Nov-19 23:00N 38°10' W 122°33'2 3.6
2017-Nov-19 22:30N 38°12' W 122°33'2 4.9
2017-Nov-19 22:00N 38°13' W 122°35'1 0.0
2017-Nov-18 20:44N 38°13' W 122°36'0 0.0
2017-Nov-18 20:30N 38°13' W 122°36'0 0.0
2017-Nov-18 20:00N 38°13' W 122°36'0 0.6
2017-Nov-18 19:30N 38°13' W 122°36'1 2.9
2017-Nov-18 19:00N 38°12' W 122°35'2 3.0
2017-Nov-18 18:30N 38°12' W 122°33'2 3.6
2017-Nov-18 18:00N 38°10' W 122°32'2 3.5
2017-Nov-18 17:30N 38°08' W 122°31'2 4.2
2017-Nov-18 17:00N 38°07' W 122°30'2 4.7
2017-Nov-18 16:30N 38°06' W 122°27'2 4.1
2017-Nov-18 16:00N 38°04' W 122°26'2 1.3
2017-Nov-18 14:42N 38°02' W 122°25'1 4.2
2017-Nov-18 14:30N 38°02' W 122°24'3 5.4
2017-Nov-18 13:59N 38°03' W 122°21'3 5.6
2017-Nov-18 13:30N 38°04' W 122°18'4 7.0
2017-Nov-18 13:00N 38°04' W 122°13'4 0.3
2017-Nov-18 01:30N 38°02' W 122°08'3 5.2
2017-Nov-18 00:59N 38°03' W 122°11'3 5.1
2017-Nov-18 00:29N 38°04' W 122°15'2 4.6
2017-Nov-17 23:59N 38°04' W 122°18'3 5.7
2017-Nov-17 23:29N 38°03' W 122°21'3 6.5
2017-Nov-17 23:00N 38°04' W 122°25'4 7.5
2017-Nov-17 22:26N 38°07' W 122°29'3 6.9
2017-Nov-17 22:00N 38°09' W 122°32'3 5.9
2017-Nov-17 21:30N 38°12' W 122°33'2 4.2
2017-Nov-17 21:00N 38°13' W 122°35'1 2.8
2017-Nov-17 20:30N 38°14' W 122°36'0 0.0
2017-Nov-16 21:06N 38°14' W 122°36'0 0.0
2017-Nov-16 21:00N 38°14' W 122°36'0 0.0
2017-Nov-16 20:30N 38°14' W 122°36'0 0.0
2017-Nov-16 20:00N 38°14' W 122°36'0 0.0
2017-Nov-16 19:30N 38°14' W 122°36'1 1.6
2017-Nov-16 19:00N 38°13' W 122°36'2 3.9
2017-Nov-16 18:30N 38°12' W 122°34'2 4.0
2017-Nov-16 18:00N 38°10' W 122°32'2 3.7
2017-Nov-16 17:30N 38°09' W 122°31'2 4.6
2017-Nov-16 17:00N 38°07' W 122°30'2 4.7
2017-Nov-16 16:29N 38°06' W 122°27'3 4.9
2017-Nov-16 15:57N 38°03' W 122°26'2 4.2
2017-Nov-16 15:30N 38°02' W 122°24'3 5.2
2017-Nov-16 14:55N 38°03' W 122°20'3 5.7
2017-Nov-16 14:29N 38°04' W 122°17'18 6.3
2017-Nov-16 11:35N 38°03' W 121°54'11 1.1
2017-Nov-16 00:58N 38°02' W 122°08'2 5.0
2017-Nov-16 00:29N 38°03' W 122°11'3 4.8
2017-Nov-15 23:54N 38°04' W 122°15'2 4.1
2017-Nov-15 23:30N 38°04' W 122°17'3 4.6
2017-Nov-15 22:56N 38°03' W 122°20'4 5.7
2017-Nov-15 22:18N 38°04' W 122°25'2 6.5
2017-Nov-15 22:00N 38°05' W 122°26'3 6.9
2017-Nov-15 21:30N 38°07' W 122°30'4 7.0
2017-Nov-15 21:00N 38°10' W 122°33'2 4.2
2017-Nov-15 20:30N 38°12' W 122°33'3 5.4
2017-Nov-15 20:00N 38°13' W 122°36'0 0.0
2017-Nov-14 20:06N 38°13' W 122°36'0 0.0
2017-Nov-14 20:00N 38°13' W 122°36'0 0.3
2017-Nov-14 19:30N 38°13' W 122°36'2 3.3
2017-Nov-14 19:00N 38°12' W 122°35'2 3.4
2017-Nov-14 18:29N 38°11' W 122°33'2 3.3
2017-Nov-14 18:00N 38°10' W 122°33'2 4.6
2017-Nov-14 17:30N 38°08' W 122°31'2 3.3
2017-Nov-14 17:00N 38°07' W 122°30'0 0.5
2017-Nov-14 16:27N 38°07' W 122°29'1 1.4
2017-Nov-14 15:56N 38°07' W 122°28'1 2.8
2017-Nov-14 15:30N 38°06' W 122°27'2 4.0
2017-Nov-14 15:00N 38°04' W 122°26'2 3.3
2017-Nov-14 14:29N 38°03' W 122°25'0 0.7
2017-Nov-14 14:00N 38°02' W 122°25'0 0.3
2017-Nov-14 13:30N 38°02' W 122°25'2 4.6
2017-Nov-14 13:00N 38°02' W 122°22'3 5.1
2017-Nov-14 12:30N 38°04' W 122°19'3 6.8
2017-Nov-14 12:00N 38°04' W 122°15'4 7.4
2017-Nov-14 11:25N 38°02' W 122°10'12 6.3
2017-Nov-14 09:30N 38°03' W 121°54'0 0.0
2017-Nov-14 09:00N 38°03' W 121°54'11 1.2
2017-Nov-14 00:15N 38°02' W 122°08'2 5.1
2017-Nov-13 23:55N 38°03' W 122°10'3 5.5
2017-Nov-13 23:27N 38°04' W 122°13'3 5.0
2017-Nov-13 22:49N 38°04' W 122°17'3 5.6
2017-Nov-13 22:22N 38°03' W 122°20'2 5.7
2017-Nov-13 22:00N 38°02' W 122°23'15 0.6
2017-Nov-12 19:23N 38°13' W 122°36'0 0.0
2017-Nov-12 19:00N 38°13' W 122°36'0 0.0
2017-Nov-12 18:30N 38°13' W 122°36'0 0.0
2017-Nov-12 18:00N 38°13' W 122°36'0 0.0
2017-Nov-12 17:30N 38°13' W 122°36'0 0.0
2017-Nov-12 17:00N 38°13' W 122°36'0 0.7
2017-Nov-12 16:30N 38°13' W 122°36'2 3.0
2017-Nov-12 16:00N 38°12' W 122°35'1 2.3
2017-Nov-12 15:30N 38°12' W 122°33'2 3.5
2017-Nov-12 15:00N 38°10' W 122°32'1 2.7
2017-Nov-12 14:29N 38°09' W 122°32'2 4.1
2017-Nov-12 13:57N 38°07' W 122°31'1 2.0
2017-Nov-12 13:26N 38°07' W 122°30'3 4.3
2017-Nov-12 12:44N 38°05' W 122°26'1 3.3
2017-Nov-12 12:30N 38°04' W 122°26'2 2.6
2017-Nov-12 11:51N 38°03' W 122°25'1 3.2
2017-Nov-12 11:30N 38°02' W 122°24'3 5.5
2017-Nov-12 10:53N 38°03' W 122°20'2 5.8
2017-Nov-12 10:30N 38°04' W 122°17'18 6.9
2017-Nov-12 07:53N 38°03' W 121°54'0 0.0
2017-Nov-12 04:37N 38°03' W 121°54'0 0.0
2017-Nov-12 04:19N 38°03' W 121°54'11 2.0
2017-Nov-11 22:45N 38°02' W 122°08'2 4.5
2017-Nov-11 22:23N 38°03' W 122°10'2 4.8
2017-Nov-11 22:00N 38°03' W 122°13'2 4.4
2017-Nov-11 21:29N 38°05' W 122°15'1 0.1
2017-Nov-11 09:04N 38°05' W 122°15'0 3.2
2017-Nov-11 09:00N 38°05' W 122°15'2 4.1
2017-Nov-11 08:30N 38°04' W 122°14'5 0.4
2017-Nov-10 19:16N 38°02' W 122°08'2 5.6
2017-Nov-10 18:50N 38°03' W 122°11'2 5.6
2017-Nov-10 18:30N 38°04' W 122°13'  
Track history (hours):
 
Tides and Currents Weather Stations Pressure Air Temp Water Temp Dewpoint Dewpoint Depression Visibility Wind Speed Wind Dir Waves Ship Positions

Petaluma

Owner: JERICO PRODUCTS INC, PETALUMA, CA. More information available from US FCC via Universal Licensing System and Coast Guard Vessel Documentation Center.

Last reported at 2017-Nov-20 00:23 UTC. Time now 2017-Nov-23 05:12 UTC.
Position N 38°03' W 122°24'.

Length 20 m; draft 3.9 m.

Type: Towing. MMSI: 367006030.

Date/timePositionNaut miles runAvg speedWind from/ knotsBaromVisibWave heightAir tempDewpointWater temp
2017-Nov-20 00:23N 38°03' W 122°24'3 6.2
2017-Nov-19 23:57N 38°05' W 122°26'3 7.4
2017-Nov-19 23:30N 38°07' W 122°30'4 7.4
2017-Nov-19 23:00N 38°10' W 122°33'2 3.6
2017-Nov-19 22:30N 38°12' W 122°33'2 4.9
2017-Nov-19 22:00N 38°13' W 122°35'1 0.0
2017-Nov-18 20:44N 38°13' W 122°36'0 0.0
2017-Nov-18 20:30N 38°13' W 122°36'0 0.0
2017-Nov-18 20:00N 38°13' W 122°36'0 0.6
2017-Nov-18 19:30N 38°13' W 122°36'1 2.9
2017-Nov-18 19:00N 38°12' W 122°35'2 3.0
2017-Nov-18 18:30N 38°12' W 122°33'2 3.6
2017-Nov-18 18:00N 38°10' W 122°32'2 3.5
2017-Nov-18 17:30N 38°08' W 122°31'2 4.2
2017-Nov-18 17:00N 38°07' W 122°30'2 4.7
2017-Nov-18 16:30N 38°06' W 122°27'2 4.1
2017-Nov-18 16:00N 38°04' W 122°26'2 1.3
2017-Nov-18 14:42N 38°02' W 122°25'1 4.2
2017-Nov-18 14:30N 38°02' W 122°24'3 5.4
2017-Nov-18 13:59N 38°03' W 122°21'3 5.6
2017-Nov-18 13:30N 38°04' W 122°18'4 7.0
2017-Nov-18 13:00N 38°04' W 122°13'4 0.3
2017-Nov-18 01:30N 38°02' W 122°08'3 5.2
2017-Nov-18 00:59N 38°03' W 122°11'3 5.1
2017-Nov-18 00:29N 38°04' W 122°15'2 4.6
2017-Nov-17 23:59N 38°04' W 122°18'3 5.7
2017-Nov-17 23:29N 38°03' W 122°21'3 6.5
2017-Nov-17 23:00N 38°04' W 122°25'4 7.5
2017-Nov-17 22:26N 38°07' W 122°29'3 6.9
2017-Nov-17 22:00N 38°09' W 122°32'3 5.9
2017-Nov-17 21:30N 38°12' W 122°33'2 4.2
2017-Nov-17 21:00N 38°13' W 122°35'1 2.8
2017-Nov-17 20:30N 38°14' W 122°36'0 0.0
2017-Nov-16 21:06N 38°14' W 122°36'0 0.0
2017-Nov-16 21:00N 38°14' W 122°36'0 0.0
2017-Nov-16 20:30N 38°14' W 122°36'0 0.0
2017-Nov-16 20:00N 38°14' W 122°36'0 0.0
2017-Nov-16 19:30N 38°14' W 122°36'1 1.6
2017-Nov-16 19:00N 38°13' W 122°36'2 3.9
2017-Nov-16 18:30N 38°12' W 122°34'2 4.0
2017-Nov-16 18:00N 38°10' W 122°32'2 3.7
2017-Nov-16 17:30N 38°09' W 122°31'2 4.6
2017-Nov-16 17:00N 38°07' W 122°30'2 4.7
2017-Nov-16 16:29N 38°06' W 122°27'3 4.9
2017-Nov-16 15:57N 38°03' W 122°26'2 4.2
2017-Nov-16 15:30N 38°02' W 122°24'3 5.2
2017-Nov-16 14:55N 38°03' W 122°20'3 5.7
2017-Nov-16 14:29N 38°04' W 122°17'18 6.3
2017-Nov-16 11:35N 38°03' W 121°54'11 1.1
2017-Nov-16 00:58N 38°02' W 122°08'2 5.0
2017-Nov-16 00:29N 38°03' W 122°11'3 4.8
2017-Nov-15 23:54N 38°04' W 122°15'2 4.1
2017-Nov-15 23:30N 38°04' W 122°17'3 4.6
2017-Nov-15 22:56N 38°03' W 122°20'4 5.7
2017-Nov-15 22:18N 38°04' W 122°25'2 6.5
2017-Nov-15 22:00N 38°05' W 122°26'3 6.9
2017-Nov-15 21:30N 38°07' W 122°30'4 7.0
2017-Nov-15 21:00N 38°10' W 122°33'2 4.2
2017-Nov-15 20:30N 38°12' W 122°33'3 5.4
2017-Nov-15 20:00N 38°13' W 122°36'0 0.0
2017-Nov-14 20:06N 38°13' W 122°36'0 0.0
2017-Nov-14 20:00N 38°13' W 122°36'0 0.3
2017-Nov-14 19:30N 38°13' W 122°36'2 3.3
2017-Nov-14 19:00N 38°12' W 122°35'2 3.4
2017-Nov-14 18:29N 38°11' W 122°33'2 3.3
2017-Nov-14 18:00N 38°10' W 122°33'2 4.6
2017-Nov-14 17:30N 38°08' W 122°31'2 3.3
2017-Nov-14 17:00N 38°07' W 122°30'0 0.5
2017-Nov-14 16:27N 38°07' W 122°29'1 1.4
2017-Nov-14 15:56N 38°07' W 122°28'1 2.8
2017-Nov-14 15:30N 38°06' W 122°27'2 4.0
2017-Nov-14 15:00N 38°04' W 122°26'2 3.3
2017-Nov-14 14:29N 38°03' W 122°25'0 0.7
2017-Nov-14 14:00N 38°02' W 122°25'0 0.3
2017-Nov-14 13:30N 38°02' W 122°25'2 4.6
2017-Nov-14 13:00N 38°02' W 122°22'3 5.1
2017-Nov-14 12:30N 38°04' W 122°19'3 6.8
2017-Nov-14 12:00N 38°04' W 122°15'4 7.4
2017-Nov-14 11:25N 38°02' W 122°10'12 6.3
2017-Nov-14 09:30N 38°03' W 121°54'0 0.0
2017-Nov-14 09:00N 38°03' W 121°54'11 1.2
2017-Nov-14 00:15N 38°02' W 122°08'2 5.1
2017-Nov-13 23:55N 38°03' W 122°10'3 5.5
2017-Nov-13 23:27N 38°04' W 122°13'3 5.0
2017-Nov-13 22:49N 38°04' W 122°17'3 5.6
2017-Nov-13 22:22N 38°03' W 122°20'2 5.7
2017-Nov-13 22:00N 38°02' W 122°23'15 0.6
2017-Nov-12 19:23N 38°13' W 122°36'0 0.0
2017-Nov-12 19:00N 38°13' W 122°36'0 0.0
2017-Nov-12 18:30N 38°13' W 122°36'0 0.0
2017-Nov-12 18:00N 38°13' W 122°36'0 0.0
2017-Nov-12 17:30N 38°13' W 122°36'0 0.0
2017-Nov-12 17:00N 38°13' W 122°36'0 0.7
2017-Nov-12 16:30N 38°13' W 122°36'2 3.0
2017-Nov-12 16:00N 38°12' W 122°35'1 2.3
2017-Nov-12 15:30N 38°12' W 122°33'2 3.5
2017-Nov-12 15:00N 38°10' W 122°32'1 2.7
2017-Nov-12 14:29N 38°09' W 122°32'2 4.1
2017-Nov-12 13:57N 38°07' W 122°31'1 2.0
2017-Nov-12 13:26N 38°07' W 122°30'3 4.3
2017-Nov-12 12:44N 38°05' W 122°26'1 3.3
2017-Nov-12 12:30N 38°04' W 122°26'2 2.6
2017-Nov-12 11:51N 38°03' W 122°25'1 3.2
2017-Nov-12 11:30N 38°02' W 122°24'3 5.5
2017-Nov-12 10:53N 38°03' W 122°20'2 5.8
2017-Nov-12 10:30N 38°04' W 122°17'18 6.9
2017-Nov-12 07:53N 38°03' W 121°54'0 0.0
2017-Nov-12 04:37N 38°03' W 121°54'0 0.0
2017-Nov-12 04:19N 38°03' W 121°54'11 2.0
2017-Nov-11 22:45N 38°02' W 122°08'2 4.5
2017-Nov-11 22:23N 38°03' W 122°10'2 4.8
2017-Nov-11 22:00N 38°03' W 122°13'2 4.4
2017-Nov-11 21:29N 38°05' W 122°15'1 0.1
2017-Nov-11 09:04N 38°05' W 122°15'0 3.2
2017-Nov-11 09:00N 38°05' W 122°15'2 4.1
2017-Nov-11 08:30N 38°04' W 122°14'5 0.4
2017-Nov-10 19:16N 38°02' W 122°08'2 5.6
2017-Nov-10 18:50N 38°03' W 122°11'2 5.6
2017-Nov-10 18:30N 38°04' W 122°13'  

Dump ship's entire track history